Time;durP1;ratioP1;P1;durP2;ratioP2;P2;SDS_P1;SDS_P2;PMS_P1;PMS_P2;Temp;Humidity;BMP_temperature;BMP_pressure;BME280_temperature;BME280_humidity;BME280_pressure;Samples;Min_cycle;Max_cycle;Signal;HPM_P1;HPM_P2
2022/06/15 00:00:44;;;;;;;2.57;2.37;;;;;;;20.84;69.24;99658.94;5016156;28;20260;-78
2022/06/15 00:03:12;;;;;;;2.50;2.40;;;;;;;20.74;68.91;99665.06;5015599;28;20571;-78
2022/06/15 00:05:42;;;;;;;3.53;2.70;;;;;;;20.69;69.72;99665.03;5015798;28;20284;-78
2022/06/15 00:08:10;;;;;;;2.63;2.43;;;;;;;20.75;69.27;99668.59;5015821;28;20282;-80
2022/06/15 00:10:37;;;;;;;2.77;2.50;;;;;;;20.65;69.52;99663.91;5015667;28;20220;-80
2022/06/15 00:13:04;;;;;;;2.57;2.47;;;;;;;20.67;69.70;99661.78;5015517;28;20240;-79
2022/06/15 00:15:30;;;;;;;3.43;2.70;;;;;;;20.67;69.51;99661.78;5015633;28;20193;-79
2022/06/15 00:18:06;;;;;;;2.77;2.47;;;;;;;20.52;69.80;99646.25;5015164;28;20217;-81
2022/06/15 00:20:32;;;;;;;5.00;2.70;;;;;;;20.34;69.73;99629.63;5016017;28;20182;-81
2022/06/15 00:23:00;;;;;;;6.23;2.80;;;;;;;20.47;69.19;99645.41;5015155;28;20198;-81
2022/06/15 00:25:27;;;;;;;2.87;2.70;;;;;;;20.49;69.26;99648.66;5015600;28;20198;-82
2022/06/15 00:27:54;;;;;;;2.80;2.60;;;;;;;20.50;68.90;99645.69;5015337;28;20256;-78
2022/06/15 00:30:21;;;;;;;2.67;2.47;;;;;;;20.48;69.14;99650.53;5015482;28;20200;-80
2022/06/15 00:32:48;;;;;;;2.40;2.30;;;;;;;20.38;68.94;99649.63;5014969;28;20191;-84
2022/06/15 00:35:16;;;;;;;2.50;2.30;;;;;;;20.40;68.90;99650.19;5015695;28;20205;-83
2022/06/15 00:37:43;;;;;;;2.40;2.30;;;;;;;20.37;69.09;99645.28;5015509;28;20226;-83
2022/06/15 00:40:12;;;;;;;4.33;2.50;;;;;;;20.22;69.60;99647.84;5015259;28;20198;-79
2022/06/15 00:42:39;;;;;;;4.47;2.67;;;;;;;20.26;69.07;99665.16;5014865;28;20639;-79
2022/06/15 00:45:06;;;;;;;2.87;2.77;;;;;;;20.27;68.84;99656.00;5014740;28;20260;-79
2022/06/15 00:47:38;;;;;;;3.27;2.83;;;;;;;20.24;68.79;99656.50;5015106;28;20620;-81
2022/06/15 00:50:09;;;;;;;4.43;2.20;;;;;;;20.15;69.04;99658.03;5015830;28;20249;-81
2022/06/15 00:52:42;;;;;;;2.37;1.97;;;;;;;20.14;68.68;99661.78;5015798;28;20197;-81
2022/06/15 00:55:17;;;;;;;4.80;2.33;;;;;;;20.18;67.82;99668.31;5014649;28;20733;-81
2022/06/15 00:57:44;;;;;;;3.33;2.37;;;;;;;20.15;68.27;99666.94;5014524;28;20646;-81
2022/06/15 01:00:12;;;;;;;2.23;2.10;;;;;;;20.23;67.45;99671.06;5014444;28;20224;-81
2022/06/15 01:02:40;;;;;;;4.03;2.43;;;;;;;20.18;67.43;99666.41;5014731;28;20279;-80
2022/06/15 01:05:12;;;;;;;2.30;2.10;;;;;;;20.11;67.64;99665.00;5015477;28;20194;-80
2022/06/15 01:08:08;;;;;;;5.13;2.20;;;;;;;20.17;67.52;99674.75;5014065;28;20288;-80
2022/06/15 01:10:52;;;;;;;2.07;1.97;;;;;;;20.19;67.09;99669.94;5015481;28;20190;-80
2022/06/15 01:13:35;;;;;;;2.10;2.00;;;;;;;20.15;67.15;99671.50;5014783;28;20221;-80
2022/06/15 01:16:08;;;;;;;5.23;2.40;;;;;;;20.16;67.05;99667.75;5015042;28;20400;-80
2022/06/15 01:18:45;;;;;;;4.10;2.30;;;;;;;20.19;67.09;99665.38;5015063;28;20244;-80
2022/06/15 01:21:22;;;;;;;2.37;2.17;;;;;;;20.18;67.35;99657.53;5014156;28;20189;-80
2022/06/15 01:24:09;;;;;;;2.50;2.17;;;;;;;20.10;67.22;99655.28;5014466;28;20178;-80
2022/06/15 01:27:11;;;;;;;2.73;2.30;;;;;;;20.05;67.62;99647.13;5014038;28;20704;-80
2022/06/15 01:30:16;;;;;;;4.73;2.33;;;;;;;19.97;67.73;99653.75;5014263;28;20276;-81
2022/06/15 01:33:08;;;;;;;2.17;2.03;;;;;;;20.01;66.99;99652.19;4997226;28;20259;-79
2022/06/15 01:35:42;;;;;;;2.30;2.10;;;;;;;20.00;66.52;99647.03;5015158;28;20182;-79
2022/06/15 01:38:22;;;;;;;2.80;2.10;;;;;;;20.02;66.60;99655.69;5014182;28;20209;-82
2022/06/15 01:40:55;;;;;;;2.33;2.23;;;;;;;20.00;66.11;99647.03;5013812;28;20189;-82
2022/06/15 01:43:28;;;;;;;2.37;2.27;;;;;;;19.98;66.24;99652.66;5014196;28;20557;-82
2022/06/15 01:45:57;;;;;;;2.40;2.20;;;;;;;19.94;65.78;99642.66;5014421;28;20602;-82
2022/06/15 01:48:28;;;;;;;3.50;2.20;;;;;;;19.90;65.56;99644.22;5013975;28;20662;-83
2022/06/15 01:51:05;;;;;;;5.83;2.50;;;;;;;19.99;65.37;99653.50;5013617;28;20192;-83
2022/06/15 01:53:36;;;;;;;2.40;2.20;;;;;;;19.96;65.40;99662.09;5015227;28;20226;-84
2022/06/15 01:56:09;;;;;;;5.60;2.70;;;;;;;19.97;64.66;99664.53;5013026;28;20190;-84
2022/06/15 01:58:40;;;;;;;6.83;2.47;;;;;;;19.90;65.14;99647.72;5013963;28;20720;-84
2022/06/15 02:01:13;;;;;;;4.80;2.67;;;;;;;20.02;64.79;99661.09;5014519;28;20183;-81
2022/06/15 02:03:49;;;;;;;2.57;2.03;;;;;;;20.03;65.09;99660.00;5013390;28;20221;-80
2022/06/15 02:06:23;;;;;;;2.27;2.10;;;;;;;19.97;65.08;99661.03;5014383;28;20189;-80
2022/06/15 02:08:54;;;;;;;2.50;2.30;;;;;;;19.92;65.10;99658.25;5014090;28;20276;-80
2022/06/15 02:11:29;;;;;;;5.53;2.27;;;;;;;19.99;64.70;99666.97;5013236;28;20240;-79
2022/06/15 02:14:01;;;;;;;3.73;1.93;;;;;;;20.02;64.82;99663.78;5013702;28;20311;-78
2022/06/15 02:16:32;;;;;;;4.43;2.60;;;;;;;20.00;64.97;99672.13;5013923;28;20261;-80
2022/06/15 02:19:03;;;;;;;2.90;2.50;;;;;;;19.94;65.02;99683.91;5013146;28;20657;-80
2022/06/15 02:21:31;;;;;;;2.27;2.10;;;;;;;19.92;65.07;99674.44;5013578;28;20539;-80
2022/06/15 02:24:01;;;;;;;2.30;2.10;;;;;;;19.95;64.98;99680.16;5013692;28;20279;-82
2022/06/15 02:26:32;;;;;;;2.73;2.40;;;;;;;19.93;65.16;99678.78;5013241;28;20193;-83
2022/06/15 02:29:05;;;;;;;2.60;2.40;;;;;;;19.86;65.33;99675.47;5013929;28;20634;-82
2022/06/15 02:31:32;;;;;;;2.70;2.50;;;;;;;19.85;65.70;99681.94;5013034;28;20621;-80
2022/06/15 02:34:03;;;;;;;2.90;2.30;;;;;;;19.92;65.47;99688.75;5013101;28;20627;-80
2022/06/15 02:36:32;;;;;;;2.57;2.47;;;;;;;19.91;65.49;99683.59;5012744;28;20193;-79
2022/06/15 02:38:59;;;;;;;2.43;2.23;;;;;;;19.91;65.46;99691.69;5013342;28;20198;-79
2022/06/15 02:41:26;;;;;;;2.30;2.20;;;;;;;19.88;65.98;99705.66;5012652;28;20197;-80
2022/06/15 02:43:55;;;;;;;6.37;2.40;;;;;;;19.80;65.87;99700.72;5013474;28;20198;-79
2022/06/15 02:46:25;;;;;;;2.30;2.20;;;;;;;19.83;65.31;99695.66;5012577;28;20201;-79
2022/06/15 02:48:54;;;;;;;3.00;2.20;;;;;;;19.88;65.34;99703.78;5012607;28;20670;-79
2022/06/15 02:51:28;;;;;;;2.90;2.60;;;;;;;19.93;65.28;99713.84;5013084;28;20198;-79
2022/06/15 02:53:59;;;;;;;2.80;2.67;;;;;;;19.87;66.15;99704.03;5012560;28;20670;-79
2022/06/15 02:56:27;;;;;;;6.47;2.40;;;;;;;19.86;66.71;99713.22;5013360;28;20244;-79
2022/06/15 02:58:57;;;;;;;2.37;2.27;;;;;;;19.89;66.93;99718.91;5012350;28;20194;-80
2022/06/15 03:01:25;;;;;;;3.03;2.57;;;;;;;19.88;67.71;99719.97;5012262;28;20190;-80
2022/06/15 03:03:52;;;;;;;2.97;2.30;;;;;;;19.91;68.16;99721.34;5012861;28;20285;-80
2022/06/15 03:06:20;;;;;;;2.40;2.30;;;;;;;19.91;67.96;99724.88;5013783;28;20190;-80
2022/06/15 03:08:49;;;;;;;3.03;2.00;;;;;;;19.97;68.24;99725.75;5011486;28;20726;-80
2022/06/15 03:11:15;;;;;;;2.50;2.30;;;;;;;20.01;68.38;99721.50;5012297;28;20190;-80
2022/06/15 03:13:42;;;;;;;5.03;2.23;;;;;;;20.34;66.76;99732.16;5012575;28;20751;-78
2022/06/15 03:16:09;;;;;;;3.57;2.37;;;;;;;20.43;65.65;99736.03;5012432;28;20260;-78
2022/06/15 03:18:36;;;;;;;3.57;2.50;;;;;;;20.38;65.24;99738.69;5012411;28;20236;-80
2022/06/15 03:21:04;;;;;;;3.70;2.20;;;;;;;20.29;65.38;99734.78;5012359;28;20259;-79
2022/06/15 03:23:31;;;;;;;2.40;2.20;;;;;;;20.35;65.48;99739.19;5012489;28;20190;-79
2022/06/15 03:26:02;;;;;;;3.93;2.70;;;;;;;20.43;65.67;99749.53;5012471;28;20260;-79
2022/06/15 03:28:29;;;;;;;2.50;2.30;;;;;;;20.44;65.42;99743.88;5012149;28;20194;-80
2022/06/15 03:30:57;;;;;;;3.57;2.60;;;;;;;20.44;65.46;99745.75;5011995;28;20196;-79
2022/06/15 03:33:24;;;;;;;5.43;2.50;;;;;;;20.72;64.58;99748.22;5012351;28;20202;-79
2022/06/15 03:35:51;;;;;;;2.93;2.33;;;;;;;20.80;64.60;99753.16;5012912;28;20198;-79
2022/06/15 03:38:18;;;;;;;2.50;2.40;;;;;;;20.83;64.32;99754.53;5011923;28;20225;-80
2022/06/15 03:40:47;;;;;;;3.17;2.97;;;;;;;20.91;64.24;99754.91;5012284;28;20198;-81
2022/06/15 03:43:16;;;;;;;5.23;2.40;;;;;;;21.03;63.85;99763.63;5012813;28;20201;-79
2022/06/15 03:45:43;;;;;;;4.13;2.30;;;;;;;21.12;63.59;99754.03;5012873;28;20280;-79
2022/06/15 03:48:11;;;;;;;4.13;2.13;;;;;;;21.22;63.15;99756.78;5012198;28;20292;-82
2022/06/15 03:50:38;;;;;;;4.00;2.40;;;;;;;21.30;62.79;99750.06;5012374;28;20198;-81
2022/06/15 03:53:07;;;;;;;4.60;2.27;;;;;;;21.52;62.04;99761.63;5012793;28;20190;-82
2022/06/15 03:55:35;;;;;;;4.30;2.43;;;;;;;21.50;62.16;99753.75;5012271;28;20672;-82
2022/06/15 03:58:01;;;;;;;5.17;2.77;;;;;;;21.47;61.39;99759.69;5011744;28;20229;-81
2022/06/15 04:00:31;;;;;;;5.40;2.53;;;;;;;21.73;60.70;99764.22;5012046;28;20666;-84
2022/06/15 04:02:58;;;;;;;4.27;2.50;;;;;;;22.33;58.85;99774.53;5012849;28;20191;-87
2022/06/15 04:05:30;;;;;;;4.97;2.10;;;;;;;23.23;55.83;99772.84;5012962;28;20198;-85
2022/06/15 04:10:41;;;;;;;10.83;2.17;;;;;;;23.71;52.53;99772.25;5012109;28;20182;-77
2022/06/15 04:13:08;;;;;;;6.80;2.57;;;;;;;23.85;53.47;99775.22;5012342;28;20234;-79
2022/06/15 04:15:37;;;;;;;7.43;2.40;;;;;;;24.83;50.22;99788.66;5011593;28;20570;-80
2022/06/15 04:18:04;;;;;;;7.00;2.03;;;;;;;25.89;46.52;99799.50;5011397;28;20227;-78
2022/06/15 04:20:33;;;;;;;6.30;2.20;;;;;;;26.82;44.63;99786.94;5014695;28;20625;-81
2022/06/15 04:23:01;;;;;;;6.40;1.60;;;;;;;27.79;44.09;99785.91;5015149;28;20697;-82
2022/06/15 04:25:28;;;;;;;2.20;2.07;;;;;;;28.52;41.84;99794.06;5015648;28;20193;-84
2022/06/15 04:27:55;;;;;;;5.47;1.63;;;;;;;29.51;38.81;99794.78;5014989;28;20651;-75
2022/06/15 04:30:22;;;;;;;3.70;2.30;;;;;;;30.43;35.26;99807.38;5015278;28;20256;-76
2022/06/15 04:32:51;;;;;;;6.13;2.13;;;;;;;30.97;36.26;99801.34;5015318;28;20264;-73
2022/06/15 04:35:18;;;;;;;8.80;2.10;;;;;;;31.56;33.74;99800.50;5015029;28;20645;-72
2022/06/15 04:37:45;;;;;;;2.27;2.10;;;;;;;31.82;33.75;99784.81;5014746;28;20283;-72
2022/06/15 04:40:13;;;;;;;3.03;1.90;;;;;;;32.14;32.15;99795.16;5015174;28;20198;-72
2022/06/15 04:42:40;;;;;;;3.10;2.13;;;;;;;32.55;31.15;99798.06;5014844;28;20190;-73
2022/06/15 04:45:08;;;;;;;7.90;2.30;;;;;;;32.68;31.63;99797.03;5015026;28;20272;-72
2022/06/15 04:47:35;;;;;;;6.43;2.07;;;;;;;33.11;32.09;99793.94;5014689;28;20198;-72
2022/06/15 04:50:04;;;;;;;1.97;1.77;;;;;;;33.33;30.28;99796.38;5014736;28;20197;-70
2022/06/15 04:52:31;;;;;;;6.40;2.30;;;;;;;33.56;30.13;99788.53;5004023;28;20190;-70
2022/06/15 04:54:58;;;;;;;8.17;2.03;;;;;;;33.89;29.56;99797.59;5009196;28;20248;-70
2022/06/15 04:57:24;;;;;;;6.03;2.23;;;;;;;34.17;29.28;99793.03;5014279;28;20635;-71
2022/06/15 04:59:51;;;;;;;5.97;2.30;;;;;;;34.05;29.86;99791.06;5014801;28;20194;-71
2022/06/15 05:02:18;;;;;;;2.67;1.53;;;;;;;33.56;30.85;99794.06;5014839;28;20341;-71
2022/06/15 05:04:45;;;;;;;3.23;1.60;;;;;;;33.66;30.53;99785.34;5011523;28;20206;-71
2022/06/15 05:07:13;;;;;;;11.60;2.70;;;;;;;34.06;30.29;99792.69;5013492;28;20252;-72
2022/06/15 05:09:39;;;;;;;6.00;2.20;;;;;;;34.35;29.26;99794.44;5013055;28;20197;-70
2022/06/15 05:12:07;;;;;;;2.03;1.90;;;;;;;34.11;29.07;99788.88;5014056;28;20241;-72
2022/06/15 05:14:33;;;;;;;6.13;2.10;;;;;;;33.73;28.79;99785.59;5013780;28;20182;-73
2022/06/15 05:17:00;;;;;;;4.17;2.07;;;;;;;33.09;28.67;99790.75;5014170;28;20618;-71
2022/06/15 05:19:29;;;;;;;2.70;1.77;;;;;;;32.73;29.53;99793.25;5014313;28;20226;-70
2022/06/15 05:21:55;;;;;;;7.93;2.03;;;;;;;32.76;29.91;99792.59;5013484;28;20665;-71
2022/06/15 05:24:24;;;;;;;4.30;1.70;;;;;;;32.88;29.11;99790.75;5013553;28;20456;-71
2022/06/15 05:26:50;;;;;;;2.70;2.20;;;;;;;32.99;28.88;99791.16;5013651;28;20280;-69
2022/06/15 05:29:17;;;;;;;9.93;2.10;;;;;;;33.10;27.59;99795.09;5012609;28;20644;-72
2022/06/15 05:31:44;;;;;;;3.57;2.13;;;;;;;32.82;29.57;99778.31;5010002;28;20588;-71
2022/06/15 05:34:10;;;;;;;3.40;1.97;;;;;;;32.82;28.23;99805.84;5002834;28;20190;-70
2022/06/15 05:36:37;;;;;;;19.30;2.40;;;;;;;31.97;28.21;99803.50;5007302;28;20194;-70
2022/06/15 05:39:05;;;;;;;3.57;2.00;;;;;;;31.93;29.49;99808.03;5004063;28;20380;-70
2022/06/15 05:41:33;;;;;;;5.23;1.97;;;;;;;31.42;29.92;99801.81;5013774;28;20201;-70
2022/06/15 05:44:00;;;;;;;19.33;3.23;;;;;;;31.13;29.85;99810.72;5014067;28;20198;-70
2022/06/15 05:46:30;;;;;;;6.93;2.60;;;;;;;30.31;29.50;99806.34;5013485;28;20285;-71
2022/06/15 05:48:57;;;;;;;5.40;1.83;;;;;;;30.03;30.07;99804.91;5011699;28;20635;-71
2022/06/15 05:51:25;;;;;;;5.10;1.97;;;;;;;29.64;31.44;99804.88;4994037;28;20194;-70
2022/06/15 05:53:52;;;;;;;3.80;2.23;;;;;;;29.45;30.87;99799.59;4993616;28;20190;-70
2022/06/15 05:56:19;;;;;;;8.47;2.60;;;;;;;29.42;31.71;99804.84;4993737;28;20729;-70
2022/06/15 05:58:47;;;;;;;10.43;3.20;;;;;;;29.23;32.57;99804.25;5012862;28;20218;-67
2022/06/15 06:01:26;;;;;;;4.50;2.10;;;;;;;29.19;32.05;99793.91;5013344;28;20281;-65
2022/06/15 06:03:53;;;;;;;6.80;2.20;;;;;;;29.69;31.68;99802.81;4993744;28;20265;-66
2022/06/15 06:06:20;;;;;;;4.70;4.27;;;;;;;29.82;31.51;99807.41;4997964;28;20623;-65
2022/06/15 06:08:47;;;;;;;2.43;1.70;;;;;;;29.88;31.32;99811.63;5013003;28;20198;-64
2022/06/15 06:11:14;;;;;;;6.40;1.83;;;;;;;29.73;31.77;99803.00;5013160;28;20194;-64
2022/06/15 06:13:41;;;;;;;3.17;1.90;;;;;;;30.19;31.50;99804.22;5012922;28;20222;-64
2022/06/15 06:16:09;;;;;;;5.47;1.90;;;;;;;30.25;31.53;99802.94;5012829;28;20736;-64
2022/06/15 06:18:36;;;;;;;3.70;2.27;;;;;;;30.06;31.46;99807.84;5012777;28;20218;-64
2022/06/15 06:21:05;;;;;;;3.73;1.93;;;;;;;30.27;31.51;99803.44;5013249;28;20202;-65
2022/06/15 06:23:31;;;;;;;11.37;2.40;;;;;;;29.95;30.34;99817.47;5012910;28;20194;-65
2022/06/15 06:25:58;;;;;;;2.30;1.60;;;;;;;30.23;30.94;99816.16;5012904;28;20666;-65
2022/06/15 06:28:28;;;;;;;2.13;2.03;;;;;;;30.07;30.57;99812.19;5012634;28;20216;-65
2022/06/15 06:30:57;;;;;;;6.13;2.20;;;;;;;30.08;30.54;99813.81;5013300;28;20202;-66
2022/06/15 06:33:26;;;;;;;2.07;1.87;;;;;;;30.45;30.21;99820.75;5012728;28;20284;-65
2022/06/15 06:35:54;;;;;;;4.47;2.13;;;;;;;30.60;29.39;99829.34;5013013;28;20202;-66
2022/06/15 06:38:22;;;;;;;5.17;1.77;;;;;;;30.71;31.20;99825.22;5013038;28;20217;-67
2022/06/15 06:40:49;;;;;;;1.87;1.77;;;;;;;30.55;31.39;99826.75;5012747;28;20289;-65
2022/06/15 06:43:15;;;;;;;7.23;1.83;;;;;;;30.35;31.07;99816.38;5011933;28;20202;-65
2022/06/15 06:45:42;;;;;;;4.87;2.27;;;;;;;30.45;31.06;99824.28;5012479;28;20622;-65
2022/06/15 06:48:10;;;;;;;2.63;1.90;;;;;;;29.95;30.51;99822.94;5013223;28;20732;-64
2022/06/15 06:50:39;;;;;;;4.50;2.27;;;;;;;30.12;31.48;99812.06;5012299;28;20248;-64
2022/06/15 06:53:06;;;;;;;8.77;2.10;;;;;;;29.87;31.23;99812.75;5012621;28;20257;-62
2022/06/15 06:55:33;;;;;;;1.90;1.80;;;;;;;30.03;30.99;99808.47;5012686;28;20194;-63
2022/06/15 06:58:01;;;;;;;2.67;1.80;;;;;;;29.64;31.65;99816.63;5012284;28;20193;-64
2022/06/15 07:00:29;;;;;;;2.20;1.93;;;;;;;29.39;31.58;99805.50;5012257;28;20255;-63
2022/06/15 07:02:58;;;;;;;3.37;1.80;;;;;;;28.97;33.05;99812.19;5021882;28;20255;-63
2022/06/15 07:05:25;;;;;;;3.47;1.80;;;;;;;29.04;33.20;99812.63;5032177;28;20259;-62
2022/06/15 07:07:53;;;;;;;6.87;2.43;;;;;;;29.12;33.21;99809.16;5032279;28;20210;-62
2022/06/15 07:10:20;;;;;;;6.30;2.13;;;;;;;29.01;32.73;99802.28;5031998;28;20204;-63
2022/06/15 07:12:47;;;;;;;8.80;2.10;;;;;;;29.08;33.22;99808.16;5004642;28;20225;-64
2022/06/15 07:15:15;;;;;;;2.37;1.77;;;;;;;29.08;33.21;99808.16;5012337;28;20633;-63
2022/06/15 07:17:43;;;;;;;10.50;2.40;;;;;;;29.17;33.00;99807.13;5012167;28;20194;-63
2022/06/15 07:20:11;;;;;;;10.97;2.00;;;;;;;29.47;33.05;99804.75;5011733;28;20225;-63
2022/06/15 07:22:38;;;;;;;5.13;2.03;;;;;;;29.57;31.59;99818.16;5012493;28;20568;-62
2022/06/15 07:25:08;;;;;;;7.10;2.00;;;;;;;29.71;31.04;99816.19;5012198;28;20256;-64
2022/06/15 07:27:36;;;;;;;10.70;2.30;;;;;;;29.83;31.25;99809.00;5011802;28;20194;-63
2022/06/15 07:30:04;;;;;;;3.47;2.10;;;;;;;29.88;31.40;99822.56;5011910;28;20198;-63
2022/06/15 07:32:31;;;;;;;3.43;1.87;;;;;;;29.68;31.61;99812.13;5011831;28;20244;-63
2022/06/15 07:34:58;;;;;;;24.70;3.53;;;;;;;29.31;31.74;99817.97;5011829;28;20248;-63
2022/06/15 07:37:25;;;;;;;12.33;2.73;;;;;;;29.55;31.97;99821.22;5012153;28;20202;-63
2022/06/15 07:39:51;;;;;;;2.83;1.60;;;;;;;29.27;31.95;99816.97;5011725;28;20280;-63
2022/06/15 07:42:20;;;;;;;4.40;1.87;;;;;;;29.37;31.63;99815.94;5012076;28;20194;-64
2022/06/15 07:44:46;;;;;;;12.13;2.30;;;;;;;29.30;31.96;99805.41;5012124;28;20201;-63
2022/06/15 07:49:58;;;;;;;9.13;2.67;;;;;;;29.40;32.37;99815.31;5011994;28;20190;-63
2022/06/15 07:52:27;;;;;;;4.60;2.27;;;;;;;29.35;31.71;99813.50;5012116;28;20198;-64
2022/06/15 07:54:54;;;;;;;3.43;1.73;;;;;;;29.53;31.40;99807.03;5013990;28;20198;-64
2022/06/15 07:57:23;;;;;;;9.23;1.90;;;;;;;29.79;31.16;99818.97;5015701;28;20681;-64
2022/06/15 07:59:50;;;;;;;4.27;2.00;;;;;;;29.59;31.46;99819.50;5015476;28;20225;-71
2022/06/15 08:02:17;;;;;;;6.77;1.80;;;;;;;29.24;31.61;99814.88;5015574;28;20631;-71
2022/06/15 08:04:44;;;;;;;18.83;3.27;;;;;;;29.39;31.83;99819.97;5015632;28;20202;-69
2022/06/15 08:07:14;;;;;;;11.40;2.67;;;;;;;29.31;31.84;99817.19;5015385;28;20198;-70
2022/06/15 08:09:41;;;;;;;5.77;2.40;;;;;;;29.64;32.37;99815.84;5015481;28;20206;-71
2022/06/15 08:12:13;;;;;;;7.13;2.30;;;;;;;29.45;31.56;99813.28;5014987;28;20222;-71
2022/06/15 08:14:44;;;;;;;4.43;2.30;;;;;;;29.45;32.17;99813.28;5015275;28;20654;-71
2022/06/15 08:17:17;;;;;;;2.77;1.87;;;;;;;29.64;32.06;99811.16;5015265;28;20186;-71
2022/06/15 08:19:47;;;;;;;2.47;1.90;;;;;;;29.53;31.12;99809.78;5009041;28;20694;-70
2022/06/15 08:22:14;;;;;;;11.67;3.40;;;;;;;29.53;31.62;99807.03;5004497;28;20182;-69
2022/06/15 08:24:43;;;;;;;3.83;1.73;;;;;;;29.92;31.76;99811.81;5003621;28;20195;-70
2022/06/15 08:27:10;;;;;;;13.63;2.90;;;;;;;29.94;32.18;99804.06;5005571;28;20190;-69
2022/06/15 08:29:39;;;;;;;13.90;2.50;;;;;;;29.63;30.87;99803.28;5008469;28;20264;-69
2022/06/15 08:32:08;;;;;;;6.10;1.80;;;;;;;29.84;31.24;99807.88;4998075;28;20659;-70
2022/06/15 08:34:37;;;;;;;4.20;1.67;;;;;;;29.65;31.34;99818.28;4995596;28;20257;-72
2022/06/15 08:37:05;;;;;;;3.83;1.77;;;;;;;29.67;31.27;99805.06;4995309;28;20198;-71
2022/06/15 08:39:32;;;;;;;3.53;2.00;;;;;;;29.75;31.40;99809.78;5000757;28;20305;-72
2022/06/15 08:42:10;;;;;;;2.33;1.70;;;;;;;29.23;32.66;99797.66;4998370;28;20203;-68
2022/06/15 08:44:45;;;;;;;2.17;2.07;;;;;;;29.56;31.27;99798.19;4995182;28;20640;-70
2022/06/15 08:47:29;;;;;;;6.00;2.30;;;;;;;29.67;30.65;99813.28;4995201;28;20189;-71
2022/06/15 08:50:02;;;;;;;3.23;1.90;;;;;;;30.37;31.13;99808.63;4994732;28;20285;-71
2022/06/15 08:52:34;;;;;;;4.87;2.00;;;;;;;30.39;29.86;99800.91;4994801;28;20651;-70
2022/06/15 08:55:07;;;;;;;4.53;1.90;;;;;;;30.01;29.96;99799.75;4994695;28;20183;-71
2022/06/15 08:57:39;;;;;;;1.70;1.60;;;;;;;29.73;30.08;99809.28;4995844;28;20197;-71
2022/06/15 09:00:10;;;;;;;2.30;1.80;;;;;;;30.14;30.73;99809.84;4994589;28;20655;-71
2022/06/15 09:02:45;;;;;;;2.20;1.93;;;;;;;30.45;30.52;99798.81;4995595;28;20195;-70
2022/06/15 09:05:25;;;;;;;3.53;1.60;;;;;;;30.47;30.58;99813.00;4993970;28;20728;-70
2022/06/15 09:08:16;;;;;;;2.03;1.57;;;;;;;30.28;31.28;99806.97;4995511;28;20186;-70
2022/06/15 09:10:50;;;;;;;5.10;2.43;;;;;;;30.36;31.21;99796.03;4995023;28;20248;-69
2022/06/15 09:13:37;;;;;;;8.97;1.93;;;;;;;31.11;29.80;99799.22;5006175;28;20315;-70
2022/06/15 09:16:14;;;;;;;4.50;2.10;;;;;;;31.02;30.84;99798.44;5013987;28;20186;-70
2022/06/15 09:18:48;;;;;;;2.63;1.60;;;;;;;31.13;31.31;99799.72;5014094;28;20258;-69
2022/06/15 09:21:19;;;;;;;9.83;2.17;;;;;;;31.17;31.40;99794.41;5014485;28;20217;-68
2022/06/15 09:23:51;;;;;;;2.60;1.83;;;;;;;30.92;28.80;99809.75;5014960;28;20190;-69
2022/06/15 09:26:24;;;;;;;1.87;1.77;;;;;;;31.15;29.81;99797.47;5013836;28;20286;-68
2022/06/15 09:28:56;;;;;;;2.20;1.90;;;;;;;31.54;28.52;99801.97;5014558;28;20190;-68
2022/06/15 09:31:28;;;;;;;1.77;1.63;;;;;;;31.83;29.95;99794.66;5013695;28;20183;-69
2022/06/15 09:34:00;;;;;;;2.23;1.40;;;;;;;32.20;29.39;99793.84;5014043;28;20194;-67
2022/06/15 09:36:31;;;;;;;3.20;1.67;;;;;;;32.37;29.80;99790.22;5013521;28;20372;-68
2022/06/15 09:38:58;;;;;;;1.63;1.53;;;;;;;32.58;30.48;99793.84;5015051;28;20234;-68
2022/06/15 09:41:29;;;;;;;4.87;1.90;;;;;;;32.25;30.90;99788.16;5013432;28;20573;-68
2022/06/15 09:44:08;;;;;;;3.83;1.90;;;;;;;32.51;30.91;99794.34;5014096;28;20190;-67
2022/06/15 09:46:44;;;;;;;2.00;1.90;;;;;;;32.59;30.87;99796.25;5013454;28;20244;-68
2022/06/15 09:49:35;;;;;;;5.77;2.10;;;;;;;32.67;29.64;99792.63;5013945;28;20618;-67
2022/06/15 09:52:08;;;;;;;3.73;1.77;;;;;;;32.73;30.31;99794.06;5013460;28;20233;-67
2022/06/15 09:54:47;;;;;;;2.17;1.97;;;;;;;32.84;30.39;99789.81;5013472;28;20225;-68
2022/06/15 09:57:14;;;;;;;1.90;1.77;;;;;;;32.88;30.04;99782.50;5013645;28;20190;-68
2022/06/15 09:59:41;;;;;;;2.17;1.97;;;;;;;32.81;30.63;99793.22;5013533;28;20320;-68
2022/06/15 10:02:18;;;;;;;2.40;1.80;;;;;;;32.51;30.02;99786.09;5013494;28;20202;-69
2022/06/15 10:04:46;;;;;;;1.70;1.57;;;;;;;32.54;29.53;99790.94;5013193;28;20646;-69
2022/06/15 10:07:25;;;;;;;3.73;1.53;;;;;;;32.52;29.75;99793.25;5013531;28;20186;-71
2022/06/15 10:09:57;;;;;;;1.67;1.57;;;;;;;32.42;30.20;99793.59;5013472;28;20194;-67
2022/06/15 10:12:59;;;;;;;5.23;1.67;;;;;;;31.81;28.12;99785.91;5012676;28;20221;-62
2022/06/15 10:15:31;;;;;;;1.80;1.70;;;;;;;31.95;29.64;99794.78;5013016;28;20285;-63
2022/06/15 10:18:02;;;;;;;3.13;1.60;;;;;;;31.79;31.07;99782.72;5013061;28;20186;-64
2022/06/15 10:20:35;;;;;;;3.37;1.97;;;;;;;31.59;31.08;99788.88;5013366;28;20292;-62
2022/06/15 10:23:06;;;;;;;4.80;2.17;;;;;;;31.44;31.88;99783.88;5013109;28;20281;-62
2022/06/15 10:25:37;;;;;;;2.63;1.90;;;;;;;31.28;30.73;99779.25;5032084;28;20197;-64
2022/06/15 10:28:15;;;;;;;8.47;2.33;;;;;;;31.39;31.86;99783.28;5032565;28;20196;-62
2022/06/15 10:30:53;;;;;;;2.43;1.83;;;;;;;31.32;32.21;99780.22;5032428;28;20197;-63
2022/06/15 10:33:20;;;;;;;4.17;1.80;;;;;;;31.37;31.00;99778.09;5032368;28;20189;-63
2022/06/15 10:35:55;;;;;;;2.37;2.20;;;;;;;31.40;31.79;99787.63;5024573;28;20261;-64
2022/06/15 10:38:22;;;;;;;2.17;1.97;;;;;;;31.51;31.53;99767.72;4993732;28;20190;-67
2022/06/15 10:40:57;;;;;;;1.90;1.80;;;;;;;31.58;31.29;99773.53;5000171;28;20221;-68
2022/06/15 10:43:30;;;;;;;2.57;1.70;;;;;;;31.74;31.04;99765.56;5012602;28;20650;-68
2022/06/15 10:46:00;;;;;;;4.37;2.17;;;;;;;31.71;31.15;99761.53;5012479;28;20190;-68
2022/06/15 10:48:32;;;;;;;2.23;1.77;;;;;;;31.65;31.16;99757.31;5012510;28;20194;-68
2022/06/15 10:51:04;;;;;;;2.10;1.63;;;;;;;31.74;29.85;99769.13;5012578;28;20289;-67
2022/06/15 10:53:38;;;;;;;2.50;1.50;;;;;;;31.78;31.60;99770.13;5012773;28;20269;-66
2022/06/15 11:02:09;;;;;;;1.80;1.70;;;;;;;31.14;30.39;99762.91;4971402;28;20666;-67
2022/06/15 11:04:50;;;;;;;2.13;1.93;;;;;;;31.32;31.90;99761.78;4999301;28;20602;-70
2022/06/15 11:07:29;;;;;;;5.47;2.27;;;;;;;31.43;30.39;99752.06;5012130;28;20182;-71
2022/06/15 11:10:11;;;;;;;3.53;1.97;;;;;;;31.43;31.59;99748.50;5012056;28;20194;-70
2022/06/15 11:12:43;;;;;;;8.80;2.07;;;;;;;31.62;31.65;99746.19;5012003;28;20232;-69
2022/06/15 11:18:01;;;;;;;5.70;2.23;;;;;;;31.61;30.89;99750.88;5013096;28;20198;-67
2022/06/15 11:18:23;;;;;;;4.87;1.83;;;;;;;30.99;30.50;99748.88;5011996;28;20204;-72
2022/06/15 11:20:54;;;;;;;2.47;2.00;;;;;;;31.40;32.03;99755.47;5013239;28;20248;-72
2022/06/15 11:23:29;;;;;;;6.03;2.00;;;;;;;31.72;30.46;99752.16;5012522;28;20190;-70
2022/06/15 11:26:01;;;;;;;8.17;2.27;;;;;;;31.56;29.16;99756.56;5012090;28;20717;-71
2022/06/15 11:28:33;;;;;;;4.77;1.87;;;;;;;31.24;29.05;99750.81;5012432;28;20273;-72
2022/06/15 11:31:04;;;;;;;1.57;1.47;;;;;;;31.30;30.43;99750.31;5016075;28;20658;-70
2022/06/15 11:33:39;;;;;;;1.80;1.70;;;;;;;31.61;30.77;99750.88;5016355;28;20190;-69
2022/06/15 11:36:22;;;;;;;2.63;2.10;;;;;;;31.63;30.58;99743.13;5016407;28;20236;-69
2022/06/15 11:38:57;;;;;;;2.33;2.23;;;;;;;31.53;30.54;99740.75;5016160;28;20198;-69
2022/06/15 11:41:28;;;;;;;4.40;2.00;;;;;;;31.28;32.29;99747.09;5015891;28;20201;-68
2022/06/15 11:43:56;;;;;;;5.37;1.83;;;;;;;31.27;32.44;99744.69;5015689;28;20728;-68
2022/06/15 11:46:50;;;;;;;2.00;1.80;;;;;;;31.53;32.06;99743.50;5016891;28;20346;-68
2022/06/15 11:49:31;;;;;;;3.93;2.03;;;;;;;31.48;32.43;99740.91;5016961;28;20187;-68
2022/06/15 11:52:17;;;;;;;2.23;1.80;;;;;;;31.31;31.79;99740.94;5015639;28;20186;-69
2022/06/15 11:55:02;;;;;;;3.90;1.90;;;;;;;31.52;31.08;99741.84;5015771;28;20189;-68
2022/06/15 11:57:40;;;;;;;2.40;1.80;;;;;;;31.65;29.72;99740.84;5016076;28;20183;-67
2022/06/15 12:00:19;;;;;;;2.17;1.80;;;;;;;31.29;30.17;99740.47;5015416;28;20693;-67
2022/06/15 12:03:10;;;;;;;7.10;2.00;;;;;;;31.25;33.76;99735.94;5015602;28;20186;-68